Astoria, IL

3:07 PM CST on November 23, 2014 (GMT -0600)
Astoria | Change Station
CLOSE
Current Station
Personal Weather Station
Location: Astoria, IL
Elevation: 712 ft
Nearby Weather Stations

Elev 712 ft 40.23 °N, 90.35 °W | Updated 11 minutes ago

Rain
Rain
51.6 °F
Feels Like 51.6 °F
N
4.0
Wind Variable Wind from South
Gusts 10.0 mph

Today
High -- | Low -- °F
--% Chance of Precip.
Yesterday
High -- | Low -- °F
Precip. -- in
6:56 AM 4:39 PM
New Moon, 2% visible
Pressure 29.39 in
Visibility 4.0 miles
Clouds Overcast 500 ft
Dew Point 51 °F
Humidity 97%
Rainfall 0.20 in
Snow Depth Not available.
UV 0 out of 12
Pollen .10 out of 12
Air Quality Not available.
Flu Activity Not available.
METAR KMQB 232055Z AUTO 16008KT 4SM -RA OVC005 11/11 A2939 RMK AO2 P0008 60028 T01130112

More Conditions Fewer Conditions

Pressure 29.39 in
Visibility 4.0 miles
Clouds Overcast 500 ft
Dew Point 51 °F
Humidity 97%
Rainfall 0.20 in
Snow Depth Not available.
UV 0 out of 12
Pollen .10 out of 12
Air Quality Not available.
Flu Activity Not available.
METAR KMQB 232055Z AUTO 16008KT 4SM -RA OVC005 11/11 A2939 RMK AO2 P0008 60028 T01130112

More Conditions Fewer Conditions

10-Day Weather Forecast

Almanac

Astronomy

Nov. 23, 2014 Rise Set
Actual Time
Civil Twilight
Nautical Twilight
Astronomical Twilight
Moon
Length of Visible Light
Length of Day
Tomorrow will be .
, % of the Moon is Illuminated

Today's Extremes

State Highs State Lows

Community

WunderPhotos

Upload Photos

1,773,176 photos uploaded!

WunderBlogs® & News

Nearby

Air Quality

  Air Quality AQ Index Pollutant
Not available.

Snow Depth

Station Depth Elevation

Earthquake Activity

City Distance Mag. Time & Date
Minimum magnitude displayed is 2.5.

Coastal Water Temperatures

Place Temperature

Nearby Weather Stations